createdAt,value
2023-02-11T00:01:34.679Z,41.20
2023-02-11T00:04:04.699Z,40.63
2023-02-11T00:06:35.272Z,41.95
2023-02-11T00:09:03.406Z,46.65
2023-02-11T00:11:30.803Z,43.50
2023-02-11T00:14:07.708Z,38.42
2023-02-11T00:16:34.967Z,49.80
2023-02-11T00:19:05.441Z,49.47
2023-02-11T00:21:34.153Z,47.13
2023-02-11T00:24:02.152Z,46.85
2023-02-11T00:26:35.004Z,42.15
2023-02-11T00:29:04.298Z,43.65
2023-02-11T00:31:31.563Z,43.75
2023-02-11T00:33:58.708Z,60.28
2023-02-11T00:36:28.369Z,44.60
2023-02-11T00:38:57.829Z,44.05
2023-02-11T00:41:26.049Z,40.72
2023-02-11T00:43:53.246Z,44.75
2023-02-11T00:46:22.006Z,55.95
2023-02-11T00:48:51.551Z,44.63
2023-02-11T00:51:18.448Z,46.78
2023-02-11T00:53:45.379Z,41.17
2023-02-11T00:56:12.405Z,46.83
2023-02-11T00:58:39.290Z,44.50
2023-02-11T01:01:06.489Z,39.13
2023-02-11T01:03:35.758Z,53.28
2023-02-11T01:06:02.693Z,42.80
2023-02-11T01:08:29.611Z,57.20
2023-02-11T01:11:06.254Z,37.80
2023-02-11T01:13:37.003Z,40.65
2023-02-11T01:16:08.137Z,42.75
2023-02-11T01:18:36.285Z,46.60
2023-02-11T01:21:04.046Z,42.33
2023-02-11T01:23:31.296Z,44.78
2023-02-11T01:25:58.461Z,45.35
2023-02-11T01:28:29.850Z,50.38
2023-02-11T01:30:57.477Z,58.75
2023-02-11T01:33:24.687Z,46.78
2023-02-11T01:35:52.633Z,43.97
2023-02-11T01:38:25.723Z,38.28
2023-02-11T01:41:09.362Z,45.42
2023-02-11T01:43:46.452Z,52.78
2023-02-11T01:46:38.201Z,49.60
2023-02-11T01:49:15.111Z,58.38
2023-02-11T01:51:53.855Z,47.67
2023-02-11T01:54:50.365Z,44.00
2023-02-11T01:57:26.701Z,46.75
2023-02-11T02:00:14.556Z,49.53
2023-02-11T02:03:12.709Z,57.72
2023-02-11T02:06:19.304Z,48.22
2023-02-11T02:09:00.829Z,40.05
2023-02-11T02:11:28.298Z,57.95
2023-02-11T02:13:55.262Z,38.40
2023-02-11T02:16:33.119Z,45.03
2023-02-11T02:19:43.329Z,44.20
2023-02-11T02:22:42.392Z,44.85
2023-02-11T02:25:45.211Z,60.33
2023-02-11T02:28:52.505Z,46.50
2023-02-11T02:32:02.934Z,35.80
2023-02-11T02:35:02.781Z,47.58
2023-02-11T02:38:00.204Z,46.25
2023-02-11T02:40:54.474Z,43.78
2023-02-11T02:43:26.256Z,56.97
2023-02-11T02:45:54.130Z,40.63
2023-02-11T02:48:32.789Z,49.08
2023-02-11T02:51:35.120Z,42.90
2023-02-11T02:55:00.104Z,49.33
2023-02-11T02:58:30.229Z,39.63
2023-02-11T03:01:42.602Z,40.20
2023-02-11T03:04:39.901Z,36.50
2023-02-11T03:07:27.593Z,42.45
2023-02-11T03:10:19.257Z,34.80
2023-02-11T03:12:48.672Z,43.92
2023-02-11T03:15:22.106Z,47.65
2023-02-11T03:17:54.389Z,37.80
2023-02-11T03:20:23.588Z,41.95
2023-02-11T03:23:22.139Z,42.80
2023-02-11T03:26:00.576Z,40.35
2023-02-11T03:28:59.877Z,35.30
2023-02-11T03:32:22.175Z,37.10
2023-02-11T03:35:04.215Z,41.28
2023-02-11T03:37:48.352Z,37.60
2023-02-11T03:40:34.380Z,41.33
2023-02-11T03:43:29.892Z,40.92
2023-02-11T03:45:59.972Z,48.05
2023-02-11T03:48:46.862Z,41.28
2023-02-11T03:51:17.341Z,38.00
2023-02-11T03:53:48.480Z,36.85
2023-02-11T03:56:26.693Z,45.08
2023-02-11T03:58:53.832Z,37.72
2023-02-11T04:01:21.227Z,36.30
2023-02-11T04:03:48.149Z,33.83
2023-02-11T04:06:15.077Z,40.40
2023-02-11T04:08:41.964Z,44.03
2023-02-11T04:11:09.181Z,37.17
2023-02-11T04:13:36.032Z,35.08
2023-02-11T04:16:03.187Z,43.17
2023-02-11T04:18:30.148Z,43.08
2023-02-11T04:20:57.139Z,45.67
2023-02-11T04:23:24.162Z,40.90
2023-02-11T04:25:51.764Z,34.83
2023-02-11T04:28:18.941Z,37.92
2023-02-11T04:30:46.023Z,37.85
2023-02-11T04:33:12.911Z,41.67
2023-02-11T04:35:39.823Z,40.00
2023-02-11T04:38:06.697Z,38.35
2023-02-11T04:40:33.782Z,35.45
2023-02-11T04:43:00.670Z,42.78
2023-02-11T04:45:27.519Z,36.47
2023-02-11T04:47:54.387Z,36.63
2023-02-11T04:50:21.503Z,41.67
2023-02-11T04:52:48.735Z,37.10
2023-02-11T04:55:15.812Z,35.70
2023-02-11T04:57:42.712Z,35.55
2023-02-11T05:00:10.909Z,38.58
2023-02-11T05:02:38.179Z,35.97
2023-02-11T05:05:05.774Z,36.22
2023-02-11T05:07:32.903Z,34.22
2023-02-11T05:09:59.817Z,43.17
2023-02-11T05:12:26.663Z,44.60
2023-02-11T05:14:53.524Z,37.55
2023-02-11T05:17:20.397Z,37.05
2023-02-11T05:19:47.264Z,32.65
2023-02-11T05:22:14.264Z,37.10
2023-02-11T05:24:41.210Z,34.03
2023-02-11T05:27:08.066Z,31.60
2023-02-11T05:29:34.969Z,30.05
2023-02-11T05:32:01.911Z,33.63
2023-02-11T05:34:28.776Z,33.97
2023-02-11T05:36:55.960Z,33.28
2023-02-11T05:39:22.886Z,28.33
2023-02-11T05:41:49.779Z,31.35
2023-02-11T05:44:16.648Z,28.67
2023-02-11T05:46:43.569Z,30.67
2023-02-11T05:49:10.436Z,29.35
2023-02-11T05:51:37.303Z,29.25
2023-02-11T05:54:04.495Z,37.97
2023-02-11T05:56:31.388Z,32.83
2023-02-11T05:59:00.183Z,28.20
2023-02-11T06:01:28.211Z,33.22
2023-02-11T06:03:55.143Z,32.60
2023-02-11T06:06:22.132Z,25.40
2023-02-11T06:08:49.096Z,30.35
2023-02-11T06:11:17.883Z,29.50
2023-02-11T06:13:44.803Z,27.10
2023-02-11T06:16:11.759Z,26.30
2023-02-11T06:18:38.702Z,33.15
2023-02-11T06:21:11.366Z,31.35
2023-02-11T06:23:38.880Z,26.05
2023-02-11T06:26:15.666Z,22.50
2023-02-11T06:28:42.612Z,26.30
2023-02-11T06:31:10.280Z,31.80
2023-02-11T06:33:38.133Z,31.95
2023-02-11T06:36:20.796Z,31.10
2023-02-11T06:38:49.689Z,28.25
2023-02-11T06:41:20.232Z,25.00
2023-02-11T06:43:49.394Z,24.33
2023-02-11T06:46:16.725Z,25.10
2023-02-11T06:48:44.961Z,22.13
2023-02-11T06:51:14.469Z,29.08
2023-02-11T06:53:46.683Z,22.98
2023-02-11T06:56:21.953Z,22.92
2023-02-11T06:58:54.686Z,28.25
2023-02-11T07:01:23.887Z,22.35
2023-02-11T07:03:52.086Z,22.38
2023-02-11T07:06:25.678Z,24.27
2023-02-11T07:08:52.547Z,24.60
2023-02-11T07:11:25.621Z,25.55
2023-02-11T07:13:59.569Z,25.38
2023-02-11T07:16:26.627Z,25.75
2023-02-11T07:18:54.127Z,22.45
2023-02-11T07:21:24.421Z,24.15
2023-02-11T07:23:52.280Z,24.33
2023-02-11T07:26:23.878Z,20.50
2023-02-11T07:28:52.814Z,24.40
2023-02-11T07:31:28.567Z,27.13
2023-02-11T07:34:00.714Z,25.13
2023-02-11T07:36:31.746Z,23.52
2023-02-11T07:39:00.188Z,23.05
2023-02-11T07:41:27.856Z,29.08
2023-02-11T07:43:55.394Z,27.40
2023-02-11T07:46:27.744Z,26.00
2023-02-11T07:48:55.914Z,25.17
2023-02-11T07:51:28.388Z,30.60
2023-02-11T07:53:59.671Z,22.88
2023-02-11T07:56:28.363Z,26.85
2023-02-11T07:59:01.366Z,24.90
2023-02-11T08:01:29.524Z,22.30
2023-02-11T08:03:59.609Z,26.43
2023-02-11T08:06:32.371Z,25.20
2023-02-11T08:09:11.961Z,22.83
2023-02-11T08:11:38.883Z,25.07
2023-02-11T08:14:05.761Z,23.53
2023-02-11T08:16:36.652Z,22.20
2023-02-11T08:19:16.026Z,28.47
2023-02-11T08:21:44.043Z,65.13
2023-02-11T08:24:11.587Z,32.87
2023-02-11T08:26:38.870Z,25.13
2023-02-11T08:29:14.468Z,19.27
2023-02-11T08:31:46.987Z,17.20
2023-02-11T08:34:18.117Z,19.50
2023-02-11T08:36:48.117Z,18.13
2023-02-11T08:39:22.717Z,17.90
2023-02-11T08:41:56.366Z,17.77
2023-02-11T08:44:24.706Z,15.80
2023-02-11T08:46:52.606Z,14.73
2023-02-11T08:49:20.045Z,21.03
2023-02-11T08:51:48.022Z,16.77
2023-02-11T08:54:16.000Z,21.43
2023-02-11T08:56:43.594Z,14.43
2023-02-11T08:59:15.265Z,13.27
2023-02-11T09:04:02.817Z,15.15
2023-02-11T09:06:30.475Z,11.00
2023-02-11T09:08:59.280Z,17.03
2023-02-11T09:11:35.765Z,15.17
2023-02-11T09:14:04.679Z,13.97
2023-02-11T09:16:36.542Z,24.00
2023-02-11T09:19:05.858Z,16.30
2023-02-11T09:21:33.140Z,18.77
2023-02-11T09:24:00.274Z,21.67
2023-02-11T09:26:34.720Z,16.40
2023-02-11T09:29:04.052Z,15.57
2023-02-11T09:31:34.020Z,21.83
2023-02-11T09:34:05.928Z,16.00
2023-02-11T09:36:38.846Z,16.97
2023-02-11T09:39:13.732Z,18.73
2023-02-11T09:42:05.881Z,17.27
2023-02-11T09:44:36.930Z,16.63
2023-02-11T09:47:25.203Z,17.60
2023-02-11T09:50:11.320Z,25.80
2023-02-11T09:53:15.172Z,20.03
2023-02-11T09:55:48.132Z,15.83
2023-02-11T09:58:29.609Z,13.97
2023-02-11T10:01:50.144Z,15.13
2023-02-11T10:04:44.572Z,15.50
2023-02-11T10:07:35.666Z,18.83
2023-02-11T10:10:52.297Z,16.20
2023-02-11T10:14:20.242Z,16.30
2023-02-11T10:18:01.633Z,18.97
2023-02-11T10:20:53.515Z,15.90
2023-02-11T10:23:28.917Z,13.50
2023-02-11T10:25:58.865Z,17.97
2023-02-11T10:28:35.362Z,14.40
2023-02-11T10:31:11.473Z,16.67
2023-02-11T10:34:05.205Z,15.53
2023-02-11T10:36:39.601Z,13.57
2023-02-11T10:39:16.353Z,15.80
2023-02-11T10:41:52.431Z,16.13
2023-02-11T10:44:56.833Z,15.00
2023-02-11T10:47:32.745Z,16.00
2023-02-11T10:50:03.429Z,14.80
2023-02-11T10:52:31.109Z,15.63
2023-02-11T10:55:15.928Z,19.97
2023-02-11T10:58:00.972Z,15.17
2023-02-11T11:00:43.410Z,13.47
2023-02-11T11:03:25.716Z,14.07
2023-02-11T11:05:58.205Z,17.47
2023-02-11T11:08:51.186Z,15.90
2023-02-11T11:11:23.519Z,17.40
2023-02-11T11:13:53.107Z,18.90
2023-02-11T11:16:32.980Z,17.60
2023-02-11T11:19:08.846Z,21.90
2023-02-11T11:21:49.247Z,15.03
2023-02-11T11:24:33.424Z,17.57
2023-02-11T11:27:04.996Z,20.97
2023-02-11T11:29:49.745Z,15.40
2023-02-11T11:32:27.750Z,19.20
2023-02-11T11:35:08.370Z,22.67
2023-02-11T11:37:39.293Z,20.57
2023-02-11T11:40:27.559Z,18.37
2023-02-11T11:43:23.121Z,21.50
2023-02-11T11:46:00.211Z,17.10
2023-02-11T11:48:39.840Z,14.30
2023-02-11T11:51:12.620Z,18.50
2023-02-11T11:53:58.167Z,16.73
2023-02-11T11:56:33.815Z,20.57
2023-02-11T11:59:13.964Z,19.03
2023-02-11T12:02:21.912Z,15.13
2023-02-11T12:05:25.349Z,19.97
2023-02-11T12:08:13.879Z,18.60
2023-02-11T12:11:03.017Z,16.93
2023-02-11T12:14:04.418Z,17.00
2023-02-11T12:17:03.095Z,17.73
2023-02-11T12:19:56.228Z,21.97
2023-02-11T12:22:52.128Z,21.63
2023-02-11T12:25:52.527Z,18.97
2023-02-11T12:29:04.461Z,23.03
2023-02-11T12:32:50.763Z,18.57
2023-02-11T12:35:59.168Z,26.50
2023-02-11T12:38:50.686Z,15.70
2023-02-11T12:42:26.167Z,19.50
2023-02-11T12:45:11.047Z,20.17
2023-02-11T12:48:55.747Z,19.20
2023-02-11T12:52:25.642Z,18.23
2023-02-11T12:55:08.243Z,15.00
2023-02-11T12:57:41.442Z,14.80
2023-02-11T13:00:22.151Z,17.50
2023-02-11T13:03:16.938Z,16.30
2023-02-11T13:05:56.852Z,16.87
2023-02-11T13:08:39.685Z,20.63
2023-02-11T13:11:17.201Z,17.07
2023-02-11T13:14:04.142Z,17.37
2023-02-11T13:16:47.114Z,17.03
2023-02-11T13:19:14.164Z,18.30
2023-02-11T13:22:23.718Z,21.07
2023-02-11T13:25:29.678Z,30.10
2023-02-11T13:28:30.382Z,14.23
2023-02-11T13:31:03.279Z,21.47
2023-02-11T13:33:42.900Z,16.07
2023-02-11T13:36:09.824Z,18.23
2023-02-11T13:38:38.129Z,22.00
2023-02-11T13:41:23.505Z,21.73
2023-02-11T13:44:11.213Z,20.90
2023-02-11T13:46:55.847Z,23.10
2023-02-11T13:49:32.135Z,15.73
2023-02-11T13:52:04.940Z,18.53
2023-02-11T13:54:39.553Z,18.33
2023-02-11T13:57:21.419Z,16.77
2023-02-11T13:59:58.879Z,16.37
2023-02-11T14:02:55.313Z,15.20
2023-02-11T14:05:51.559Z,16.10
2023-02-11T14:08:42.448Z,19.63
2023-02-11T14:11:44.602Z,17.07
2023-02-11T14:14:31.867Z,15.23
2023-02-11T14:16:59.179Z,21.17
2023-02-11T14:19:46.993Z,16.20
2023-02-11T14:22:44.151Z,22.97
2023-02-11T14:25:25.160Z,23.70
2023-02-11T14:28:32.678Z,17.93
2023-02-11T14:31:26.348Z,17.33
2023-02-11T14:34:24.219Z,19.63
2023-02-11T14:37:15.694Z,18.10
2023-02-11T14:40:46.363Z,15.13
2023-02-11T14:43:24.336Z,18.93
2023-02-11T14:45:56.555Z,18.17
2023-02-11T14:48:34.904Z,20.90
2023-02-11T14:51:15.241Z,19.10
2023-02-11T14:53:50.787Z,15.50
2023-02-11T14:56:30.991Z,24.83
2023-02-11T14:58:58.880Z,21.83
2023-02-11T15:01:32.367Z,15.33
2023-02-11T15:04:02.588Z,14.77
2023-02-11T15:06:41.060Z,14.13
2023-02-11T15:09:21.005Z,17.87
2023-02-11T15:11:52.139Z,15.60
2023-02-11T15:14:36.254Z,13.10
2023-02-11T15:17:09.366Z,16.30
2023-02-11T15:19:47.228Z,18.80
2023-02-11T15:22:30.070Z,17.23
2023-02-11T15:25:19.384Z,17.07
2023-02-11T15:27:58.924Z,16.50
2023-02-11T15:30:34.193Z,16.13
2023-02-11T15:33:07.024Z,13.93
2023-02-11T15:35:41.265Z,17.47
2023-02-11T15:38:13.140Z,18.00
2023-02-11T15:40:40.787Z,19.07
2023-02-11T15:43:10.719Z,14.80
2023-02-11T15:45:52.388Z,20.77
2023-02-11T15:48:36.974Z,14.50
2023-02-11T15:51:20.824Z,19.63
2023-02-11T15:53:58.474Z,15.20
2023-02-11T15:56:37.387Z,17.87
2023-02-11T15:59:40.546Z,16.93
2023-02-11T16:02:34.933Z,25.73
2023-02-11T16:05:09.477Z,21.00
2023-02-11T16:07:50.634Z,26.50
2023-02-11T16:10:34.244Z,23.40
2023-02-11T16:13:06.970Z,20.40
2023-02-11T16:15:33.790Z,20.03
2023-02-11T16:18:26.429Z,18.20
2023-02-11T16:21:04.721Z,23.20
2023-02-11T16:23:42.475Z,18.00
2023-02-11T16:26:35.493Z,18.03
2023-02-11T16:29:27.552Z,21.10
2023-02-11T16:32:17.302Z,25.03
2023-02-11T16:34:44.863Z,23.70
2023-02-11T16:37:12.102Z,20.93
2023-02-11T16:39:39.005Z,21.03
2023-02-11T16:42:08.937Z,22.07
2023-02-11T16:44:36.236Z,21.50
2023-02-11T16:47:07.841Z,24.17
2023-02-11T16:49:42.694Z,25.47
2023-02-11T16:52:16.031Z,29.23
2023-02-11T16:54:43.030Z,22.80
2023-02-11T16:57:24.516Z,24.43
2023-02-11T16:59:52.735Z,24.57
2023-02-11T17:02:29.550Z,26.60
2023-02-11T17:05:01.731Z,23.30
2023-02-11T17:07:29.387Z,27.70
2023-02-11T17:09:56.678Z,25.80
2023-02-11T17:12:25.307Z,23.77
2023-02-11T17:14:53.696Z,35.00
2023-02-11T17:17:23.559Z,27.13
2023-02-11T17:19:51.188Z,22.23
2023-02-11T17:22:18.563Z,21.40
2023-02-11T17:24:45.438Z,28.20
2023-02-11T17:27:12.999Z,23.93
2023-02-11T17:29:39.871Z,24.87
2023-02-11T17:32:06.981Z,22.50
2023-02-11T17:34:34.089Z,26.47
2023-02-11T17:37:02.983Z,23.13
2023-02-11T17:39:29.914Z,28.70
2023-02-11T17:41:56.792Z,31.07
2023-02-11T17:44:23.710Z,31.67
2023-02-11T17:46:50.563Z,26.27
2023-02-11T17:49:17.457Z,54.13
2023-02-11T17:51:44.539Z,88.57
2023-02-11T17:54:18.127Z,76.13
2023-02-11T17:56:50.514Z,88.07
2023-02-11T17:59:17.911Z,134.03
2023-02-11T18:01:45.207Z,52.90
2023-02-11T18:04:19.168Z,39.00
2023-02-11T18:06:47.018Z,47.43
2023-02-11T18:09:14.064Z,22.57
2023-02-11T18:11:41.903Z,33.40
2023-02-11T18:14:11.051Z,28.47
2023-02-11T18:16:42.924Z,30.57
2023-02-11T18:19:12.555Z,28.77
2023-02-11T18:21:39.605Z,38.40
2023-02-11T18:24:07.320Z,31.43
2023-02-11T18:26:35.923Z,30.50
2023-02-11T18:29:04.854Z,28.57
2023-02-11T18:31:31.820Z,26.10
2023-02-11T18:33:58.842Z,27.80
2023-02-11T18:36:25.977Z,28.50
2023-02-11T18:38:54.126Z,32.50
2023-02-11T18:41:21.686Z,29.53
2023-02-11T18:43:49.279Z,31.63
2023-02-11T18:46:17.242Z,27.20
2023-02-11T18:48:45.035Z,29.07
2023-02-11T18:51:18.783Z,32.73
2023-02-11T18:53:46.680Z,28.87
2023-02-11T18:56:20.757Z,28.40
2023-02-11T18:58:49.373Z,82.00
2023-02-11T19:01:24.540Z,34.63
2023-02-11T19:03:52.085Z,22.20
2023-02-11T19:06:27.821Z,24.83
2023-02-11T19:08:59.916Z,18.63
2023-02-11T19:11:49.315Z,20.27
2023-02-11T19:14:29.032Z,24.33
2023-02-11T19:17:01.522Z,22.97
2023-02-11T19:19:32.607Z,23.63
2023-02-11T19:22:01.977Z,22.60
2023-02-11T19:24:30.710Z,18.10
2023-02-11T19:27:03.262Z,23.13
2023-02-11T19:29:34.901Z,21.70
2023-02-11T19:32:08.370Z,21.03
2023-02-11T19:34:41.594Z,22.23
2023-02-11T19:37:14.062Z,23.97
2023-02-11T19:39:44.727Z,24.30
2023-02-11T19:42:13.542Z,21.23
2023-02-11T19:44:41.564Z,19.70
2023-02-11T19:47:10.549Z,22.40
2023-02-11T19:49:38.313Z,24.30
2023-02-11T19:52:05.812Z,22.13
2023-02-11T19:54:33.211Z,27.40
2023-02-11T19:57:00.418Z,22.70
2023-02-11T19:59:27.860Z,26.20
2023-02-11T20:01:55.309Z,28.60
2023-02-11T20:04:24.918Z,21.60
2023-02-11T20:06:52.462Z,24.90
2023-02-11T20:09:19.524Z,25.10
2023-02-11T20:11:47.523Z,22.73
2023-02-11T20:14:18.149Z,22.27
2023-02-11T20:16:49.783Z,23.07
2023-02-11T20:19:22.740Z,21.57
2023-02-11T20:21:56.235Z,27.47
2023-02-11T20:24:26.980Z,22.60
2023-02-11T20:26:58.316Z,22.87
2023-02-11T20:29:28.007Z,28.63
2023-02-11T20:31:56.838Z,36.00
2023-02-11T20:34:26.110Z,27.90
2023-02-11T20:36:54.027Z,31.20
2023-02-11T20:39:24.757Z,30.10
2023-02-11T20:41:53.870Z,46.77
2023-02-11T20:44:22.204Z,38.50
2023-02-11T20:46:51.928Z,38.20
2023-02-11T20:49:24.114Z,23.93
2023-02-11T20:51:53.583Z,22.20
2023-02-11T20:54:25.656Z,25.47
2023-02-11T20:56:54.155Z,21.43
2023-02-11T20:59:25.267Z,18.17
2023-02-11T21:01:56.460Z,20.00
2023-02-11T21:04:31.856Z,21.47
2023-02-11T21:07:04.977Z,21.13
2023-02-11T21:09:33.702Z,22.43
2023-02-11T21:12:02.776Z,18.70
2023-02-11T21:14:30.286Z,29.00
2023-02-11T21:16:58.211Z,23.00
2023-02-11T21:19:25.783Z,30.13
2023-02-11T21:21:55.537Z,29.60
2023-02-11T21:24:23.898Z,32.60
2023-02-11T21:26:50.804Z,34.73
2023-02-11T21:29:17.709Z,31.20
2023-02-11T21:31:44.772Z,34.57
2023-02-11T21:34:11.879Z,36.97
2023-02-11T21:36:38.975Z,37.87
2023-02-11T21:39:05.956Z,45.60
2023-02-11T21:41:33.296Z,43.40
2023-02-11T21:44:00.241Z,41.23
2023-02-11T21:46:27.895Z,42.73
2023-02-11T21:48:54.837Z,28.67
2023-02-11T21:51:26.435Z,33.33
2023-02-11T21:54:01.398Z,31.00
2023-02-11T21:56:31.638Z,31.87
2023-02-11T21:59:00.365Z,45.40
2023-02-11T22:01:35.072Z,33.77
2023-02-11T22:04:02.000Z,31.53
2023-02-11T22:06:34.110Z,29.57
2023-02-11T22:09:10.896Z,35.10
2023-02-11T22:11:37.876Z,31.80
2023-02-11T22:14:05.445Z,36.50
2023-02-11T22:16:32.483Z,36.67
2023-02-11T22:19:02.255Z,43.40
2023-02-11T22:21:29.596Z,35.43
2023-02-11T22:23:56.582Z,34.20
2023-02-11T22:26:27.192Z,33.50
2023-02-11T22:28:55.214Z,33.20
2023-02-11T22:31:32.183Z,37.03
2023-02-11T22:34:00.507Z,33.80
2023-02-11T22:36:36.559Z,25.87
2023-02-11T22:39:10.881Z,30.90
2023-02-11T22:41:39.696Z,29.50
2023-02-11T22:44:07.667Z,30.17
2023-02-11T22:46:35.411Z,33.17
2023-02-11T22:49:02.762Z,37.30
2023-02-11T22:51:30.391Z,34.60
2023-02-11T22:54:05.866Z,29.17
2023-02-11T22:56:34.881Z,31.47
2023-02-11T22:59:06.687Z,30.73
2023-02-11T23:01:35.136Z,30.43
2023-02-11T23:04:06.421Z,31.90
2023-02-11T23:06:34.427Z,38.53
2023-02-11T23:09:07.300Z,34.00
2023-02-11T23:11:35.968Z,27.70
2023-02-11T23:14:03.689Z,30.47
2023-02-11T23:16:34.365Z,28.70
2023-02-11T23:19:07.780Z,32.30
2023-02-11T23:21:39.126Z,34.80
2023-02-11T23:24:13.587Z,29.47
2023-02-11T23:26:43.942Z,30.10
2023-02-11T23:29:12.057Z,26.80
2023-02-11T23:31:43.823Z,30.80
2023-02-11T23:34:16.985Z,28.47
2023-02-11T23:36:44.425Z,30.93
2023-02-11T23:39:16.819Z,34.97
2023-02-11T23:41:44.664Z,24.93
2023-02-11T23:44:12.160Z,27.77
2023-02-11T23:46:39.292Z,28.57
2023-02-11T23:49:06.157Z,31.67
2023-02-11T23:51:33.074Z,24.90
2023-02-11T23:53:59.997Z,30.63
2023-02-11T23:56:28.789Z,27.10
2023-02-11T23:58:59.030Z,27.33
